createdAt,value
2022-08-17T00:00:42.900Z,28.01
2022-08-17T00:03:33.270Z,27.93
2022-08-17T00:06:15.611Z,27.88
2022-08-17T00:08:46.643Z,27.83
2022-08-17T00:11:27.554Z,27.79
2022-08-17T00:14:13.888Z,27.70
2022-08-17T00:16:57.997Z,27.60
2022-08-17T00:19:28.452Z,27.53
2022-08-17T00:22:32.215Z,27.48
2022-08-17T00:24:51.849Z,27.45
2022-08-17T00:27:21.476Z,27.49
2022-08-17T00:29:50.831Z,27.53
2022-08-17T00:33:12.357Z,27.58
2022-08-17T00:35:14.459Z,27.64
2022-08-17T00:37:44.336Z,27.65
2022-08-17T00:40:17.212Z,27.65
2022-08-17T00:42:48.949Z,27.71
2022-08-17T00:45:21.612Z,27.74
2022-08-17T00:47:51.128Z,27.73
2022-08-17T00:50:21.518Z,27.71
2022-08-17T00:52:57.542Z,27.68
2022-08-17T00:55:30.050Z,27.67
2022-08-17T00:58:04.554Z,27.63
2022-08-17T01:00:45.384Z,27.61
2022-08-17T01:03:28.808Z,27.57
2022-08-17T01:06:03.178Z,27.47
2022-08-17T01:08:34.389Z,27.38
2022-08-17T01:11:06.302Z,27.30
2022-08-17T01:13:46.004Z,27.24
2022-08-17T01:16:33.010Z,27.17
2022-08-17T01:19:07.963Z,27.08
2022-08-17T01:22:07.830Z,27.03
2022-08-17T01:24:42.206Z,26.99
2022-08-17T01:27:18.538Z,26.97
2022-08-17T01:29:58.998Z,26.96
2022-08-17T01:32:31.470Z,26.90
2022-08-17T01:35:04.757Z,26.86
2022-08-17T01:37:40.058Z,26.83
2022-08-17T01:40:44.349Z,26.83
2022-08-17T01:43:29.395Z,26.82
2022-08-17T01:46:03.242Z,26.81
2022-08-17T01:48:40.682Z,26.79
2022-08-17T01:51:10.361Z,26.78
2022-08-17T01:53:47.457Z,26.76
2022-08-17T01:56:22.723Z,26.74
2022-08-17T01:58:52.099Z,26.68
2022-08-17T02:01:30.430Z,26.60
2022-08-17T02:04:01.769Z,26.53
2022-08-17T02:06:45.080Z,26.46
2022-08-17T02:09:17.260Z,26.35
2022-08-17T02:11:47.373Z,26.27
2022-08-17T02:14:17.085Z,26.18
2022-08-17T02:16:47.095Z,26.09
2022-08-17T02:19:19.043Z,25.99
2022-08-17T02:21:52.633Z,25.86
2022-08-17T02:24:58.990Z,25.77
2022-08-17T02:27:17.511Z,25.68
2022-08-17T02:29:46.874Z,25.58
2022-08-17T02:32:28.427Z,25.50
2022-08-17T02:35:02.033Z,25.39
2022-08-17T02:37:33.115Z,25.29
2022-08-17T02:40:03.004Z,25.18
2022-08-17T02:42:39.324Z,25.08
2022-08-17T02:45:14.894Z,25.01
2022-08-17T02:47:45.280Z,24.91
2022-08-17T02:50:19.232Z,24.86
2022-08-17T02:52:55.261Z,24.80
2022-08-17T02:55:42.239Z,24.71
2022-08-17T02:58:14.779Z,24.60
2022-08-17T03:01:08.992Z,24.48
2022-08-17T03:03:39.828Z,24.37
2022-08-17T03:06:09.854Z,24.32
2022-08-17T03:08:39.799Z,24.24
2022-08-17T03:11:09.327Z,24.13
2022-08-17T03:13:38.804Z,24.01
2022-08-17T03:16:09.662Z,23.91
2022-08-17T03:18:38.776Z,23.80
2022-08-17T03:21:10.189Z,23.69
2022-08-17T03:23:42.258Z,23.60
2022-08-17T03:26:15.555Z,23.51
2022-08-17T03:28:45.729Z,23.40
2022-08-17T03:31:15.318Z,23.31
2022-08-17T03:33:44.535Z,23.20
2022-08-17T03:36:13.865Z,23.10
2022-08-17T03:38:43.217Z,23.01
2022-08-17T03:41:15.102Z,22.87
2022-08-17T03:43:44.614Z,22.76
2022-08-17T03:46:34.977Z,22.67
2022-08-17T03:49:26.757Z,22.52
2022-08-17T03:52:16.764Z,22.29
2022-08-17T03:55:05.881Z,22.12
2022-08-17T03:57:35.252Z,22.04
2022-08-17T04:00:06.262Z,21.94
2022-08-17T04:02:36.439Z,21.78
2022-08-17T04:05:06.594Z,21.68
2022-08-17T04:07:36.155Z,21.60
2022-08-17T04:10:06.068Z,21.56
2022-08-17T04:12:56.639Z,21.54
2022-08-17T04:15:27.272Z,21.53
2022-08-17T04:17:57.376Z,21.51
2022-08-17T04:20:28.626Z,21.48
2022-08-17T04:23:08.032Z,21.39
2022-08-17T04:25:43.628Z,21.34
2022-08-17T04:28:16.219Z,21.29
2022-08-17T04:30:48.469Z,21.26
2022-08-17T04:33:25.459Z,21.23
2022-08-17T04:36:02.332Z,21.20
2022-08-17T04:38:36.783Z,21.16
2022-08-17T04:41:26.902Z,21.10
2022-08-17T04:43:59.411Z,21.04
2022-08-17T04:46:36.060Z,20.98
2022-08-17T04:49:10.935Z,20.94
2022-08-17T04:51:55.844Z,20.90
2022-08-17T04:54:27.106Z,20.79
2022-08-17T04:56:56.489Z,20.69
2022-08-17T04:59:25.774Z,20.66
2022-08-17T05:01:55.798Z,20.67
2022-08-17T05:04:34.122Z,20.66
2022-08-17T05:07:05.701Z,20.64
2022-08-17T05:09:35.011Z,20.61
2022-08-17T05:12:04.858Z,20.63
2022-08-17T05:14:34.567Z,20.66
2022-08-17T05:17:11.047Z,20.66
2022-08-17T05:19:41.081Z,20.65
2022-08-17T05:22:10.540Z,20.63
2022-08-17T05:24:43.765Z,20.61
2022-08-17T05:27:23.811Z,20.60
2022-08-17T05:29:53.335Z,20.60
2022-08-17T05:32:39.006Z,20.58
2022-08-17T05:35:10.658Z,20.54
2022-08-17T05:37:40.384Z,20.51
2022-08-17T05:40:11.539Z,20.47
2022-08-17T05:42:41.102Z,20.42
2022-08-17T05:45:12.368Z,20.36
2022-08-17T05:47:42.386Z,20.29
2022-08-17T05:50:59.957Z,20.23
2022-08-17T05:53:42.092Z,20.16
2022-08-17T05:56:57.596Z,20.10
2022-08-17T06:00:20.305Z,20.01
2022-08-17T06:03:08.855Z,19.92
2022-08-17T06:06:00.817Z,19.89
2022-08-17T06:08:40.714Z,19.83
2022-08-17T06:11:38.255Z,19.77
2022-08-17T06:14:41.834Z,19.70
2022-08-17T06:17:18.580Z,19.64
2022-08-17T06:20:01.395Z,19.57
2022-08-17T06:22:38.800Z,19.55
2022-08-17T06:25:20.563Z,19.50
2022-08-17T06:27:57.065Z,19.44
2022-08-17T06:30:41.411Z,19.38
2022-08-17T06:33:36.805Z,19.30
2022-08-17T06:36:52.385Z,19.26
2022-08-17T06:40:09.668Z,19.18
2022-08-17T06:43:06.534Z,19.11
2022-08-17T06:46:08.035Z,19.00
2022-08-17T06:48:44.097Z,18.94
2022-08-17T06:51:40.571Z,18.90
2022-08-17T06:54:21.449Z,18.85
2022-08-17T06:57:11.483Z,18.80
2022-08-17T06:59:58.909Z,18.74
2022-08-17T07:02:56.822Z,18.68
2022-08-17T07:06:00.366Z,18.58
2022-08-17T07:08:46.021Z,18.52
2022-08-17T07:11:36.466Z,18.49
2022-08-17T07:14:29.609Z,18.45
2022-08-17T07:17:03.898Z,18.39
2022-08-17T07:19:36.917Z,18.34
2022-08-17T07:22:18.182Z,18.29
2022-08-17T07:25:10.962Z,18.23
2022-08-17T07:27:52.460Z,18.18
2022-08-17T07:30:29.144Z,18.15
2022-08-17T07:33:21.138Z,18.11
2022-08-17T07:35:51.120Z,18.05
2022-08-17T07:38:31.538Z,18.02
2022-08-17T07:41:06.068Z,18.01
2022-08-17T07:43:44.312Z,17.97
2022-08-17T07:46:52.520Z,17.93
2022-08-17T07:49:43.384Z,17.84
2022-08-17T07:52:47.880Z,17.81
2022-08-17T07:55:37.064Z,17.78
2022-08-17T07:58:06.871Z,17.75
2022-08-17T08:00:38.337Z,17.72
2022-08-17T08:03:28.578Z,17.70
2022-08-17T08:06:04.203Z,17.67
2022-08-17T08:08:51.534Z,17.64
2022-08-17T08:11:44.154Z,17.60
2022-08-17T08:14:40.885Z,17.55
2022-08-17T08:17:11.212Z,17.52
2022-08-17T08:19:40.451Z,17.50
2022-08-17T08:22:29.906Z,17.48
2022-08-17T08:25:28.939Z,17.44
2022-08-17T08:28:37.816Z,17.38
2022-08-17T08:31:45.181Z,17.37
2022-08-17T08:35:01.490Z,17.38
2022-08-17T08:38:04.213Z,17.39
2022-08-17T08:40:47.812Z,17.36
2022-08-17T08:43:49.575Z,17.37
2022-08-17T08:46:49.806Z,17.34
2022-08-17T08:50:05.900Z,17.28
2022-08-17T08:53:02.628Z,17.21
2022-08-17T08:57:19.203Z,17.15
2022-08-17T08:59:57.988Z,17.09
2022-08-17T09:03:28.078Z,17.05
2022-08-17T09:06:59.006Z,17.06
2022-08-17T09:09:44.241Z,17.05
2022-08-17T09:12:49.753Z,17.05
2022-08-17T09:15:39.839Z,17.03
2022-08-17T09:19:00.179Z,17.00
2022-08-17T09:21:57.107Z,16.93
2022-08-17T09:25:05.226Z,16.88
2022-08-17T09:28:06.680Z,16.84
2022-08-17T09:30:54.202Z,16.80
2022-08-17T09:33:28.060Z,16.70
2022-08-17T09:36:14.169Z,16.65
2022-08-17T09:39:12.639Z,16.59
2022-08-17T09:42:15.432Z,16.54
2022-08-17T09:45:11.815Z,16.48
2022-08-17T09:48:04.236Z,16.46
2022-08-17T09:51:06.498Z,16.47
2022-08-17T09:53:40.045Z,16.48
2022-08-17T09:56:48.249Z,16.51
2022-08-17T09:59:56.774Z,16.52
2022-08-17T10:02:59.803Z,16.52
2022-08-17T10:05:38.834Z,16.50
2022-08-17T10:08:53.535Z,16.48
2022-08-17T10:12:13.512Z,16.45
2022-08-17T10:14:57.086Z,16.40
2022-08-17T10:18:08.709Z,16.36
2022-08-17T10:21:35.089Z,16.30
2022-08-17T10:24:39.951Z,16.21
2022-08-17T10:27:59.942Z,16.18
2022-08-17T10:30:34.883Z,16.14
2022-08-17T10:33:16.988Z,16.10
2022-08-17T10:36:28.218Z,16.01
2022-08-17T10:39:22.890Z,15.90
2022-08-17T10:41:59.822Z,15.88
2022-08-17T10:45:01.549Z,15.85
2022-08-17T10:48:22.882Z,15.81
2022-08-17T10:51:00.922Z,15.77
2022-08-17T10:53:42.420Z,15.71
2022-08-17T10:56:14.585Z,15.65
2022-08-17T10:59:09.428Z,15.59
2022-08-17T11:01:43.120Z,15.52
2022-08-17T11:04:25.151Z,15.46
2022-08-17T11:07:16.040Z,15.39
2022-08-17T11:10:25.237Z,15.30
2022-08-17T11:13:03.004Z,15.22
2022-08-17T11:16:16.935Z,15.15
2022-08-17T11:19:18.695Z,15.03
2022-08-17T11:21:53.883Z,14.97
2022-08-17T11:24:46.211Z,14.91
2022-08-17T11:27:35.726Z,14.82
2022-08-17T11:30:37.027Z,14.72
2022-08-17T11:33:31.861Z,14.61
2022-08-17T11:36:19.029Z,14.52
2022-08-17T11:39:02.460Z,14.47
2022-08-17T11:42:08.447Z,14.38
2022-08-17T11:44:54.228Z,14.30
2022-08-17T11:48:15.986Z,14.25
2022-08-17T11:51:28.933Z,14.24
2022-08-17T11:54:34.870Z,14.26
2022-08-17T11:57:33.362Z,14.20
2022-08-17T12:00:43.384Z,14.11
2022-08-17T12:03:28.140Z,13.98
2022-08-17T12:06:11.230Z,13.85
2022-08-17T12:08:49.888Z,13.77
2022-08-17T12:11:58.821Z,13.71
2022-08-17T12:15:08.135Z,13.62
2022-08-17T12:17:40.658Z,13.55
2022-08-17T12:20:30.300Z,13.46
2022-08-17T12:23:36.609Z,13.41
2022-08-17T12:26:23.769Z,13.38
2022-08-17T12:29:18.132Z,13.32
2022-08-17T12:32:03.461Z,13.29
2022-08-17T12:34:45.595Z,13.24
2022-08-17T12:37:27.333Z,13.04
2022-08-17T12:40:20.911Z,12.91
2022-08-17T12:43:09.006Z,12.91
2022-08-17T12:45:41.666Z,12.94
2022-08-17T12:48:23.547Z,12.95
2022-08-17T12:50:59.690Z,12.92
2022-08-17T12:53:32.879Z,12.92
2022-08-17T12:56:11.724Z,12.91
2022-08-17T12:58:56.842Z,12.96
2022-08-17T13:01:27.461Z,12.99
2022-08-17T13:04:02.133Z,12.98
2022-08-17T13:06:36.154Z,12.96
2022-08-17T13:09:35.715Z,12.95
2022-08-17T13:12:09.813Z,12.89
2022-08-17T13:14:38.972Z,12.90
2022-08-17T13:17:13.491Z,12.90
2022-08-17T13:19:52.184Z,12.90
2022-08-17T13:22:26.957Z,12.90
2022-08-17T13:25:10.437Z,12.87
2022-08-17T13:27:45.243Z,12.87
2022-08-17T13:30:16.034Z,12.89
2022-08-17T13:32:48.642Z,12.90
2022-08-17T13:35:41.407Z,12.89
2022-08-17T13:38:40.892Z,12.92
2022-08-17T13:41:39.954Z,12.95
2022-08-17T13:44:44.853Z,12.94
2022-08-17T13:47:21.392Z,12.98
2022-08-17T13:49:51.417Z,13.03
2022-08-17T13:52:53.160Z,13.06
2022-08-17T13:55:24.719Z,13.12
2022-08-17T13:58:03.599Z,13.16
2022-08-17T14:00:38.762Z,13.20
2022-08-17T14:03:08.179Z,13.16
2022-08-17T14:05:39.940Z,13.18
2022-08-17T14:08:09.207Z,13.17
2022-08-17T14:10:38.570Z,13.18
2022-08-17T14:13:09.299Z,13.20
2022-08-17T14:15:56.282Z,13.22
2022-08-17T14:18:35.527Z,13.26
2022-08-17T14:21:16.565Z,13.33
2022-08-17T14:23:49.008Z,13.35
2022-08-17T14:26:24.072Z,13.41
2022-08-17T14:28:56.271Z,13.47
2022-08-17T14:31:27.709Z,13.51
2022-08-17T14:33:57.122Z,13.56
2022-08-17T14:36:26.736Z,13.58
2022-08-17T14:38:56.032Z,13.62
2022-08-17T14:41:26.032Z,13.68
2022-08-17T14:43:55.461Z,13.72
2022-08-17T14:46:24.680Z,13.77
2022-08-17T14:48:57.333Z,13.86
2022-08-17T14:51:30.979Z,13.96
2022-08-17T14:54:00.445Z,14.04
2022-08-17T14:56:31.800Z,14.13
2022-08-17T14:59:08.105Z,14.20
2022-08-17T15:01:37.861Z,14.25
2022-08-17T15:04:07.412Z,14.32
2022-08-17T15:06:36.603Z,14.37
2022-08-17T15:09:06.132Z,14.42
2022-08-17T15:11:35.731Z,14.48
2022-08-17T15:14:04.917Z,14.56
2022-08-17T15:16:38.359Z,14.66
2022-08-17T15:19:09.601Z,14.77
2022-08-17T15:21:39.451Z,14.91
2022-08-17T15:24:10.284Z,15.02
2022-08-17T15:26:40.225Z,15.13
2022-08-17T15:29:11.471Z,15.24
2022-08-17T15:31:41.141Z,15.34
2022-08-17T15:34:10.349Z,15.44
2022-08-17T15:36:49.041Z,15.53
2022-08-17T15:39:19.686Z,15.62
2022-08-17T15:41:58.683Z,15.71
2022-08-17T15:44:32.626Z,15.79
2022-08-17T15:47:04.492Z,15.92
2022-08-17T15:49:34.448Z,16.07
2022-08-17T15:52:22.722Z,16.16
2022-08-17T15:55:01.527Z,16.25
2022-08-17T15:57:30.968Z,16.34
2022-08-17T16:00:00.235Z,16.47
2022-08-17T16:03:13.848Z,16.60
2022-08-17T16:05:28.222Z,16.74
2022-08-17T16:08:00.846Z,16.85
2022-08-17T16:10:35.401Z,16.92
2022-08-17T16:13:17.813Z,17.02
2022-08-17T16:15:57.046Z,17.18
2022-08-17T16:18:32.717Z,17.29
2022-08-17T16:21:25.862Z,17.38
2022-08-17T16:24:13.618Z,17.50
2022-08-17T16:26:44.773Z,17.67
2022-08-17T16:29:14.647Z,17.82
2022-08-17T16:31:44.611Z,17.92
2022-08-17T16:34:16.813Z,18.00
2022-08-17T16:36:56.161Z,18.07
2022-08-17T16:39:30.645Z,18.24
2022-08-17T16:42:00.166Z,18.37
2022-08-17T16:44:32.692Z,18.48
2022-08-17T16:47:02.524Z,18.60
2022-08-17T16:49:37.077Z,18.75
2022-08-17T16:52:11.497Z,18.85
2022-08-17T16:54:47.734Z,18.96
2022-08-17T16:57:18.536Z,19.06
2022-08-17T16:59:52.187Z,19.16
2022-08-17T17:02:38.912Z,19.28
2022-08-17T17:05:57.799Z,19.40
2022-08-17T17:08:44.107Z,19.56
2022-08-17T17:11:28.204Z,19.66
2022-08-17T17:14:09.926Z,19.76
2022-08-17T17:17:09.436Z,19.89
2022-08-17T17:19:58.605Z,19.99
2022-08-17T17:23:05.008Z,20.11
2022-08-17T17:25:48.922Z,20.24
2022-08-17T17:28:51.189Z,20.28
2022-08-17T17:31:26.563Z,20.37
2022-08-17T17:34:01.463Z,20.44
2022-08-17T17:36:43.220Z,20.50
2022-08-17T17:39:44.143Z,20.60
2022-08-17T17:42:20.461Z,20.74
2022-08-17T17:45:25.230Z,20.87
2022-08-17T17:47:55.083Z,20.99
2022-08-17T17:50:42.105Z,21.07
2022-08-17T17:53:41.519Z,21.17
2022-08-17T17:56:42.923Z,21.38
2022-08-17T17:59:59.276Z,21.47
2022-08-17T18:02:58.505Z,21.56
2022-08-17T18:06:13.679Z,21.66
2022-08-17T18:09:10.357Z,21.73
2022-08-17T18:12:12.616Z,21.77
2022-08-17T18:14:42.180Z,21.84
2022-08-17T18:17:11.545Z,21.88
2022-08-17T18:19:41.058Z,21.90
2022-08-17T18:22:22.520Z,21.94
2022-08-17T18:24:57.640Z,21.96
2022-08-17T18:27:40.675Z,22.01
2022-08-17T18:30:15.804Z,22.14
2022-08-17T18:32:50.651Z,22.19
2022-08-17T18:35:29.143Z,22.26
2022-08-17T18:38:43.108Z,22.29
2022-08-17T18:41:27.262Z,22.33
2022-08-17T18:44:06.452Z,22.45
2022-08-17T18:46:38.599Z,22.55
2022-08-17T18:49:29.590Z,22.63
2022-08-17T18:52:22.823Z,22.67
2022-08-17T18:55:32.319Z,22.74
2022-08-17T18:58:21.174Z,22.78
2022-08-17T19:00:51.724Z,22.83
2022-08-17T19:03:27.604Z,22.89
2022-08-17T19:06:35.356Z,23.03
2022-08-17T19:09:04.825Z,23.13
2022-08-17T19:11:38.650Z,23.21
2022-08-17T19:14:13.239Z,23.27
2022-08-17T19:17:42.119Z,23.37
2022-08-17T19:20:28.008Z,23.48
2022-08-17T19:23:16.039Z,23.54
2022-08-17T19:25:52.547Z,23.56
2022-08-17T19:28:57.864Z,23.58
2022-08-17T19:31:32.237Z,23.64
2022-08-17T19:34:03.762Z,23.65
2022-08-17T19:37:31.315Z,23.71
2022-08-17T19:40:48.788Z,23.89
2022-08-17T19:43:51.690Z,23.98
2022-08-17T19:46:37.303Z,24.05
2022-08-17T19:49:58.887Z,24.12
2022-08-17T19:52:56.354Z,24.22
2022-08-17T19:55:37.616Z,24.30
2022-08-17T19:58:33.147Z,24.36
2022-08-17T20:01:03.540Z,24.44
2022-08-17T20:04:10.890Z,24.47
2022-08-17T20:06:45.676Z,24.50
2022-08-17T20:09:56.827Z,24.55
2022-08-17T20:12:33.436Z,24.64
2022-08-17T20:15:16.664Z,24.71
2022-08-17T20:17:49.343Z,24.79
2022-08-17T20:21:07.666Z,24.86
2022-08-17T20:24:19.345Z,24.93
2022-08-17T20:27:31.561Z,24.94
2022-08-17T20:30:31.091Z,24.97
2022-08-17T20:33:03.846Z,24.96
2022-08-17T20:35:40.889Z,25.00
2022-08-17T20:38:44.922Z,25.05
2022-08-17T20:41:33.328Z,25.12
2022-08-17T20:44:08.408Z,25.23
2022-08-17T20:46:41.428Z,25.28
2022-08-17T20:49:17.496Z,25.33
2022-08-17T20:52:14.464Z,25.37
2022-08-17T20:54:58.231Z,25.48
2022-08-17T20:57:33.596Z,25.59
2022-08-17T21:00:31.537Z,25.66
2022-08-17T21:03:50.924Z,25.70
2022-08-17T21:06:25.782Z,25.75
2022-08-17T21:09:29.616Z,25.78
2022-08-17T21:12:07.969Z,25.82
2022-08-17T21:14:44.670Z,25.88
2022-08-17T21:17:50.314Z,25.99
2022-08-17T21:20:36.026Z,26.06
2022-08-17T21:23:46.745Z,26.07
2022-08-17T21:26:20.064Z,26.07
2022-08-17T21:29:29.512Z,26.05
2022-08-17T21:32:06.373Z,26.08
2022-08-17T21:34:45.674Z,26.14
2022-08-17T21:37:42.302Z,26.17
2022-08-17T21:40:24.747Z,26.11
2022-08-17T21:43:26.046Z,26.11
2022-08-17T21:46:14.324Z,26.14
2022-08-17T21:48:48.066Z,26.16
2022-08-17T21:51:27.246Z,26.17
2022-08-17T21:54:04.285Z,26.22
2022-08-17T21:56:43.254Z,26.29
2022-08-17T21:59:33.392Z,26.38
2022-08-17T22:02:21.122Z,26.42
2022-08-17T22:05:07.816Z,26.44
2022-08-17T22:07:51.720Z,26.53
2022-08-17T22:10:35.114Z,26.62
2022-08-17T22:13:29.596Z,26.67
2022-08-17T22:16:28.336Z,26.70
2022-08-17T22:19:00.587Z,26.67
2022-08-17T22:21:30.048Z,26.70
2022-08-17T22:24:25.730Z,26.73
2022-08-17T22:27:11.560Z,26.73
2022-08-17T22:29:59.203Z,26.80
2022-08-17T22:32:49.092Z,26.85
2022-08-17T22:35:37.217Z,26.87
2022-08-17T22:38:21.533Z,26.89
2022-08-17T22:41:15.231Z,26.91
2022-08-17T22:43:45.400Z,26.92
2022-08-17T22:46:16.375Z,26.92
2022-08-17T22:48:58.678Z,26.93
2022-08-17T22:51:33.824Z,26.93
2022-08-17T22:54:36.868Z,26.97
2022-08-17T22:57:31.509Z,27.01
2022-08-17T23:00:02.206Z,27.02
2022-08-17T23:02:35.745Z,27.00
2022-08-17T23:05:22.545Z,27.01
2022-08-17T23:07:54.337Z,27.03
2022-08-17T23:10:23.682Z,27.05
2022-08-17T23:12:54.293Z,27.07
2022-08-17T23:15:23.669Z,27.07
2022-08-17T23:17:53.819Z,27.11
2022-08-17T23:20:23.172Z,27.16
2022-08-17T23:22:53.154Z,27.16
2022-08-17T23:25:34.639Z,27.14
2022-08-17T23:28:07.004Z,27.17
2022-08-17T23:30:42.846Z,27.14
2022-08-17T23:33:22.475Z,27.12
2022-08-17T23:35:52.236Z,27.14
2022-08-17T23:38:23.492Z,27.14
2022-08-17T23:40:52.937Z,27.14
2022-08-17T23:43:25.737Z,27.13
2022-08-17T23:46:00.707Z,27.11
2022-08-17T23:48:36.856Z,27.14
2022-08-17T23:51:18.239Z,27.15
2022-08-17T23:53:55.320Z,27.11
2022-08-17T23:56:29.031Z,27.10
2022-08-17T23:58:59.649Z,27.09
